createdAt,value
2023-01-03T02:57:29.097Z,35
2023-01-03T03:02:38.560Z,35
2023-01-03T03:23:14.236Z,35
2023-01-03T03:38:41.065Z,35
2023-01-03T04:50:46.783Z,36
2023-01-03T04:55:55.594Z,36
2023-01-03T05:01:04.612Z,36
2023-01-03T05:11:22.460Z,36
2023-01-03T05:16:31.458Z,36
2023-01-03T05:21:40.324Z,36
2023-01-03T05:26:49.307Z,36
2023-01-03T05:37:07.214Z,36
2023-01-03T05:42:16.196Z,35
2023-01-03T05:47:25.117Z,35
2023-01-03T05:52:34.082Z,35
2023-01-03T05:57:43.064Z,35
2023-01-03T06:02:52.043Z,35
2023-01-03T06:08:00.970Z,34
2023-01-03T06:13:09.924Z,34
2023-01-03T06:18:18.858Z,34
2023-01-03T06:23:27.790Z,33
2023-01-03T06:28:36.753Z,33
2023-01-03T06:33:45.680Z,33
2023-01-03T06:38:54.635Z,33
2023-01-03T06:44:03.718Z,33
2023-01-03T06:49:12.523Z,32
2023-01-03T06:54:21.455Z,32
2023-01-03T06:59:30.489Z,31
2023-01-03T07:04:39.453Z,31
2023-01-03T07:09:48.308Z,30
2023-01-03T07:14:57.281Z,30
2023-01-03T07:20:06.214Z,30
2023-01-03T07:25:15.140Z,30
2023-01-03T07:30:24.136Z,30
2023-01-03T07:35:33.054Z,30
2023-01-03T07:40:42.001Z,30
2023-01-03T07:45:50.982Z,30
2023-01-03T07:50:59.888Z,30
2023-01-03T07:56:12.991Z,29
2023-01-03T08:01:18.036Z,30
2023-01-03T08:06:26.740Z,30
2023-01-03T08:11:35.646Z,30
2023-01-03T08:16:44.644Z,30
2023-01-03T08:21:53.527Z,30
2023-01-03T08:27:02.472Z,30
2023-01-03T08:32:11.431Z,30
2023-01-03T08:37:20.339Z,31
2023-01-03T08:42:29.286Z,31
2023-01-03T08:47:38.338Z,31
2023-01-03T08:52:47.177Z,31
2023-01-03T08:57:56.116Z,31
2023-01-03T09:03:05.335Z,31
2023-01-03T09:08:14.015Z,31
2023-01-03T09:13:22.938Z,31
2023-01-03T09:18:31.894Z,31
2023-01-03T09:23:40.812Z,31
2023-01-03T09:28:49.789Z,31
2023-01-03T09:33:58.731Z,31
2023-01-03T09:39:07.652Z,31
2023-01-03T09:44:16.596Z,31
2023-01-03T09:49:25.822Z,31
2023-01-03T09:54:34.490Z,31
2023-01-03T09:59:43.430Z,31
2023-01-03T10:04:52.367Z,31
2023-01-03T10:10:01.304Z,31
2023-01-03T10:15:10.248Z,31
2023-01-03T10:20:19.250Z,31
2023-01-03T10:25:28.111Z,31
2023-01-03T10:30:37.093Z,31
2023-01-03T10:35:46.064Z,31
2023-01-03T10:40:54.960Z,31
2023-01-03T10:46:03.978Z,31
2023-01-03T10:51:12.880Z,31
2023-01-03T10:56:21.836Z,31
2023-01-03T11:01:30.956Z,31
2023-01-03T11:06:39.780Z,31
2023-01-03T11:11:48.695Z,31
2023-01-03T11:16:57.760Z,31
2023-01-03T11:22:06.656Z,31
2023-01-03T11:27:15.615Z,31
2023-01-03T11:32:24.619Z,31
2023-01-03T11:37:33.494Z,31
2023-01-03T11:42:42.386Z,31
2023-01-03T11:47:51.341Z,31
2023-01-03T11:53:00.282Z,31
2023-01-03T11:58:09.248Z,31
2023-01-03T12:03:18.287Z,31
2023-01-03T12:08:27.128Z,31
2023-01-03T12:13:36.041Z,31
2023-01-03T12:18:45.011Z,31
2023-01-03T12:23:53.999Z,30
2023-01-03T12:29:02.882Z,30
2023-01-03T12:34:11.852Z,30
2023-01-03T12:39:20.864Z,30
2023-01-03T12:44:29.775Z,30
2023-01-03T12:49:38.754Z,30
2023-01-03T12:54:47.712Z,30
2023-01-03T12:59:56.625Z,30
2023-01-03T13:10:14.554Z,30
2023-01-03T13:15:23.472Z,30
2023-01-03T13:20:32.406Z,30
2023-01-03T13:25:41.506Z,30
2023-01-03T13:30:50.387Z,30
2023-01-03T13:35:59.279Z,30
2023-01-03T13:41:17.613Z,30
2023-01-03T13:46:17.189Z,30
2023-01-03T13:51:26.071Z,30
2023-01-03T13:56:35.040Z,30
2023-01-03T14:01:44.161Z,30
2023-01-03T14:06:52.932Z,30
2023-01-03T14:12:01.883Z,30
2023-01-03T14:17:10.796Z,30
2023-01-03T14:22:30.928Z,30
2023-01-03T14:27:28.706Z,30
2023-01-03T14:32:37.629Z,30
2023-01-03T14:37:46.561Z,30
2023-01-03T14:42:55.527Z,30
2023-01-03T14:48:04.587Z,30
2023-01-03T14:53:13.382Z,30
2023-01-03T14:58:22.359Z,31
2023-01-03T15:03:31.399Z,30
2023-01-03T15:08:40.210Z,30
2023-01-03T15:13:49.166Z,30
2023-01-03T15:18:58.102Z,30
2023-01-03T15:24:46.088Z,29
2023-01-03T15:29:54.011Z,30
2023-01-03T15:35:01.909Z,31
2023-01-03T15:40:09.823Z,31
2023-01-03T15:45:17.784Z,31
2023-01-03T15:50:25.683Z,31
2023-01-03T15:55:33.602Z,31
2023-01-03T16:00:41.550Z,32
2023-01-03T16:05:49.455Z,31
2023-01-03T16:10:57.474Z,32
2023-01-03T16:16:05.361Z,32
2023-01-03T16:21:13.231Z,32
2023-01-03T16:26:21.163Z,32
2023-01-03T16:31:29.136Z,32
2023-01-03T16:36:37.002Z,32
2023-01-03T16:41:44.926Z,32
2023-01-03T16:46:52.875Z,32
2023-01-03T16:52:00.806Z,32
2023-01-03T16:57:08.719Z,32
2023-01-03T17:02:16.756Z,32
2023-01-03T17:07:22.699Z,32
2023-01-03T17:12:29.853Z,32
2023-01-03T17:17:36.115Z,32
2023-01-03T17:22:41.980Z,33
2023-01-03T17:27:48.016Z,33
2023-01-03T17:32:55.272Z,33
2023-01-03T17:43:07.328Z,33
2023-01-03T17:48:13.395Z,33
2023-01-03T17:53:20.504Z,33
2023-01-03T17:58:26.565Z,33
2023-01-03T18:03:33.867Z,33
2023-01-03T18:08:39.786Z,33
2023-01-03T18:13:45.843Z,33
2023-01-03T18:18:51.976Z,33
2023-01-03T18:23:57.948Z,33
2023-01-03T18:29:03.995Z,33
2023-01-03T18:34:11.194Z,33
2023-01-03T18:39:17.242Z,33
2023-01-03T18:44:23.348Z,33
2023-01-03T18:49:29.364Z,33
2023-01-03T18:54:36.487Z,33
2023-01-03T18:59:42.588Z,33
2023-01-03T19:04:51.819Z,33
2023-01-03T19:09:55.809Z,34
2023-01-03T19:15:01.830Z,34
2023-01-03T19:20:07.909Z,34
2023-01-03T19:25:15.073Z,34
2023-01-03T19:30:21.098Z,34
2023-01-03T19:35:27.197Z,34
2023-01-03T19:40:33.218Z,34
2023-01-03T19:45:40.404Z,34
2023-01-03T19:50:46.471Z,34
2023-01-03T19:55:53.607Z,34
2023-01-03T20:00:59.695Z,34
2023-01-03T20:06:05.899Z,34
2023-01-03T20:11:11.778Z,34
2023-01-03T20:16:19.043Z,34
2023-01-03T20:21:25.040Z,34
2023-01-03T20:26:31.109Z,34
2023-01-03T20:31:37.166Z,34
2023-01-03T20:36:44.312Z,34
2023-01-03T20:41:50.333Z,34
2023-01-03T20:46:57.555Z,34
2023-01-03T20:52:03.601Z,34
2023-01-03T20:57:09.602Z,34
2023-01-03T21:02:15.788Z,34
2023-01-03T21:07:21.715Z,34
2023-01-03T21:12:31.046Z,34
2023-01-03T21:17:34.929Z,34
2023-01-03T21:22:41.002Z,34
2023-01-03T21:27:47.036Z,34
2023-01-03T21:32:53.108Z,34
2023-01-03T21:37:59.166Z,34
2023-01-03T21:43:05.573Z,34
2023-01-03T21:48:11.247Z,34
2023-01-03T21:53:17.341Z,34
2023-01-03T21:58:23.354Z,34
2023-01-03T22:03:29.503Z,34
2023-01-03T22:08:35.490Z,34
2023-01-03T22:18:49.433Z,34
2023-01-03T22:23:55.532Z,34
2023-01-03T22:29:01.544Z,34
2023-01-03T22:34:07.606Z,35
2023-01-03T22:39:13.678Z,35
2023-01-03T22:44:19.701Z,35
2023-01-03T22:49:25.746Z,35
2023-01-03T22:54:31.839Z,35
2023-01-03T22:59:37.861Z,35
2023-01-03T23:04:43.967Z,35
2023-01-03T23:09:49.963Z,35
2023-01-03T23:14:56.016Z,35
2023-01-03T23:20:02.115Z,35
2023-01-03T23:25:08.132Z,35
2023-01-03T23:30:14.359Z,35
2023-01-03T23:35:20.235Z,35
2023-01-03T23:40:26.305Z,35
2023-01-03T23:45:32.410Z,35
2023-01-03T23:50:38.385Z,35
2023-01-03T23:55:44.474Z,35
